Bowlesville, Illinois
Current Conditions -  °F | °C
As of 12:15 AM on Saturday 29 Nov 2014 (Local Time) from KHSB Reporting Station
Clear Clear  
Wind Chill: 37°   Ceiling: Unl
Heat Index: 43°   Visibility: 10mi
Dew Point: 29°   Wind: 9mph
Humidity: 59%   Direction: 210°SSW
Pressure: 30.01"   Gusts: NA
Location:  37.7051°N, 88.1623°W
Report Text: KHSB 290615Z AUTO 21008KT 10SM CLR 06/M01 A3001 RMK AO2 T00601014
Loading
Personal Weather Stations






























Interactive Weather Map New forecast layout! Learn more

10-Day Weather Forecast

Advertisements
Track Severe Weather on mobile